sensor_id;sensor_type;location;lat;lon;timestamp;pressure;altitude;pressure_sealevel;temperature;humidity
5500;BME280;2772;42.700;23.304;2023-11-21T00:02:25;94968.91;;;8.48;100.00
5500;BME280;2772;42.700;23.304;2023-11-21T00:04:52;94965.84;;;8.54;100.00
5500;BME280;2772;42.700;23.304;2023-11-21T00:07:19;94971.84;;;8.60;100.00
5500;BME280;2772;42.700;23.304;2023-11-21T00:09:48;94968.50;;;8.68;100.00
5500;BME280;2772;42.700;23.304;2023-11-21T00:12:15;94966.31;;;8.83;100.00
5500;BME280;2772;42.700;23.304;2023-11-21T00:14:42;94969.44;;;8.85;100.00
5500;BME280;2772;42.700;23.304;2023-11-21T00:17:08;94975.03;;;8.84;100.00
5500;BME280;2772;42.700;23.304;2023-11-21T00:19:36;94976.22;;;8.78;100.00
5500;BME280;2772;42.700;23.304;2023-11-21T00:22:03;94975.53;;;8.86;100.00
5500;BME280;2772;42.700;23.304;2023-11-21T00:24:31;94969.13;;;8.87;100.00
5500;BME280;2772;42.700;23.304;2023-11-21T00:26:59;94977.81;;;8.79;100.00
5500;BME280;2772;42.700;23.304;2023-11-21T00:29:26;94956.66;;;8.87;100.00
5500;BME280;2772;42.700;23.304;2023-11-21T00:31:54;94966.97;;;8.89;100.00
5500;BME280;2772;42.700;23.304;2023-11-21T00:34:21;94959.78;;;8.89;100.00
5500;BME280;2772;42.700;23.304;2023-11-21T00:36:47;94967.25;;;8.87;100.00
5500;BME280;2772;42.700;23.304;2023-11-21T00:39:14;94967.47;;;8.91;100.00
5500;BME280;2772;42.700;23.304;2023-11-21T00:41:41;94958.78;;;8.99;100.00
5500;BME280;2772;42.700;23.304;2023-11-21T00:44:11;94965.06;;;9.03;100.00
5500;BME280;2772;42.700;23.304;2023-11-21T00:46:38;94963.50;;;9.02;100.00
5500;BME280;2772;42.700;23.304;2023-11-21T00:49:05;94966.16;;;9.02;100.00
5500;BME280;2772;42.700;23.304;2023-11-21T00:51:32;94978.38;;;8.89;100.00
5500;BME280;2772;42.700;23.304;2023-11-21T00:53:58;94974.63;;;8.90;100.00
5500;BME280;2772;42.700;23.304;2023-11-21T00:56:25;94957.41;;;9.01;100.00
5500;BME280;2772;42.700;23.304;2023-11-21T00:58:52;94959.09;;;8.97;100.00
5500;BME280;2772;42.700;23.304;2023-11-21T01:01:21;94955.28;;;8.90;100.00
5500;BME280;2772;42.700;23.304;2023-11-21T01:03:48;94950.25;;;8.88;100.00
5500;BME280;2772;42.700;23.304;2023-11-21T01:06:15;94953.47;;;8.99;100.00
5500;BME280;2772;42.700;23.304;2023-11-21T01:08:43;94957.94;;;8.90;100.00
5500;BME280;2772;42.700;23.304;2023-11-21T01:11:10;94957.94;;;8.90;100.00
5500;BME280;2772;42.700;23.304;2023-11-21T01:13:38;94946.88;;;8.96;100.00
5500;BME280;2772;42.700;23.304;2023-11-21T01:16:05;94945.00;;;8.97;100.00
5500;BME280;2772;42.700;23.304;2023-11-21T01:18:34;94943.47;;;8.96;100.00
5500;BME280;2772;42.700;23.304;2023-11-21T01:21:01;94946.56;;;8.98;100.00
5500;BME280;2772;42.700;23.304;2023-11-21T01:23:28;94951.81;;;8.89;100.00
5500;BME280;2772;42.700;23.304;2023-11-21T01:25:56;94955.84;;;8.87;100.00
5500;BME280;2772;42.700;23.304;2023-11-21T01:28:23;94957.25;;;8.84;100.00
5500;BME280;2772;42.700;23.304;2023-11-21T01:30:49;94958.44;;;8.78;100.00
5500;BME280;2772;42.700;23.304;2023-11-21T01:33:16;94943.47;;;8.82;100.00
5500;BME280;2772;42.700;23.304;2023-11-21T01:35:45;94955.28;;;8.90;100.00
5500;BME280;2772;42.700;23.304;2023-11-21T01:38:12;94949.47;;;8.88;100.00
5500;BME280;2772;42.700;23.304;2023-11-21T01:40:39;94959.69;;;8.81;100.00
5500;BME280;2772;42.700;23.304;2023-11-21T01:43:06;94951.97;;;8.71;100.00
5500;BME280;2772;42.700;23.304;2023-11-21T01:45:34;94962.22;;;8.50;100.00
5500;BME280;2772;42.700;23.304;2023-11-21T01:48:00;94953.06;;;8.29;100.00
5500;BME280;2772;42.700;23.304;2023-11-21T01:50:28;94950.25;;;8.26;100.00
5500;BME280;2772;42.700;23.304;2023-11-21T01:52:57;94952.75;;;8.17;100.00
5500;BME280;2772;42.700;23.304;2023-11-21T01:55:24;94956.47;;;8.02;100.00
5500;BME280;2772;42.700;23.304;2023-11-21T01:57:52;94964.63;;;7.92;100.00
5500;BME280;2772;42.700;23.304;2023-11-21T02:00:19;94960.16;;;7.74;100.00
5500;BME280;2772;42.700;23.304;2023-11-21T02:02:47;94960.34;;;7.64;100.00
5500;BME280;2772;42.700;23.304;2023-11-21T02:05:15;94957.78;;;7.59;100.00
5500;BME280;2772;42.700;23.304;2023-11-21T02:07:44;94953.66;;;7.53;100.00
5500;BME280;2772;42.700;23.304;2023-11-21T02:10:14;94950.56;;;7.46;100.00
5500;BME280;2772;42.700;23.304;2023-11-21T02:12:43;94949.25;;;7.30;100.00
5500;BME280;2772;42.700;23.304;2023-11-21T02:15:12;94949.41;;;7.20;100.00
5500;BME280;2772;42.700;23.304;2023-11-21T02:17:42;94952.69;;;7.12;100.00
5500;BME280;2772;42.700;23.304;2023-11-21T02:20:10;94949.56;;;7.10;100.00
5500;BME280;2772;42.700;23.304;2023-11-21T02:22:41;94946.66;;;7.12;100.00
5500;BME280;2772;42.700;23.304;2023-11-21T02:25:10;94938.16;;;6.96;100.00
5500;BME280;2772;42.700;23.304;2023-11-21T02:27:36;94936.03;;;6.93;100.00
5500;BME280;2772;42.700;23.304;2023-11-21T02:30:04;94941.63;;;6.92;100.00
5500;BME280;2772;42.700;23.304;2023-11-21T02:32:33;94943.69;;;6.76;100.00
5500;BME280;2772;42.700;23.304;2023-11-21T02:34:59;94931.50;;;6.80;100.00
5500;BME280;2772;42.700;23.304;2023-11-21T02:37:28;94939.78;;;6.55;100.00
5500;BME280;2772;42.700;23.304;2023-11-21T02:39:55;94935.56;;;6.54;100.00
5500;BME280;2772;42.700;23.304;2023-11-21T02:42:23;94930.63;;;6.47;100.00
5500;BME280;2772;42.700;23.304;2023-11-21T02:44:50;94928.81;;;6.43;100.00
5500;BME280;2772;42.700;23.304;2023-11-21T02:47:17;94935.44;;;6.22;100.00
5500;BME280;2772;42.700;23.304;2023-11-21T02:49:43;94923.44;;;6.06;100.00
5500;BME280;2772;42.700;23.304;2023-11-21T02:52:10;94928.91;;;6.14;100.00
5500;BME280;2772;42.700;23.304;2023-11-21T02:54:37;94925.59;;;6.04;100.00
5500;BME280;2772;42.700;23.304;2023-11-21T02:57:04;94915.72;;;5.91;100.00
5500;BME280;2772;42.700;23.304;2023-11-21T02:59:34;94917.78;;;5.94;100.00
5500;BME280;2772;42.700;23.304;2023-11-21T03:02:01;94915.13;;;5.94;100.00
5500;BME280;2772;42.700;23.304;2023-11-21T03:04:28;94913.78;;;5.96;100.00
5500;BME280;2772;42.700;23.304;2023-11-21T03:06:56;94910.97;;;6.11;100.00
5500;BME280;2772;42.700;23.304;2023-11-21T03:09:22;94913.19;;;6.23;100.00
5500;BME280;2772;42.700;23.304;2023-11-21T03:11:49;94910.50;;;6.28;100.00
5500;BME280;2772;42.700;23.304;2023-11-21T03:14:16;94927.16;;;6.28;100.00
5500;BME280;2772;42.700;23.304;2023-11-21T03:16:44;94913.03;;;6.38;100.00
5500;BME280;2772;42.700;23.304;2023-11-21T03:19:11;94917.00;;;6.35;100.00
5500;BME280;2772;42.700;23.304;2023-11-21T03:21:38;94928.31;;;6.41;100.00
5500;BME280;2772;42.700;23.304;2023-11-21T03:24:05;94932.31;;;6.38;100.00
5500;BME280;2772;42.700;23.304;2023-11-21T03:26:32;94929.03;;;6.46;100.00
5500;BME280;2772;42.700;23.304;2023-11-21T03:28:59;94931.66;;;6.46;100.00
5500;BME280;2772;42.700;23.304;2023-11-21T03:31:26;94941.47;;;6.46;100.00
5500;BME280;2772;42.700;23.304;2023-11-21T03:33:54;94929.81;;;6.47;100.00
5500;BME280;2772;42.700;23.304;2023-11-21T03:36:21;94928.63;;;6.58;100.00
5500;BME280;2772;42.700;23.304;2023-11-21T03:38:48;94928.03;;;6.61;100.00
5500;BME280;2772;42.700;23.304;2023-11-21T03:41:15;94930.47;;;6.58;100.00
5500;BME280;2772;42.700;23.304;2023-11-21T03:43:41;94918.97;;;6.48;100.00
5500;BME280;2772;42.700;23.304;2023-11-21T03:46:08;94915.09;;;6.60;100.00
5500;BME280;2772;42.700;23.304;2023-11-21T03:48:35;94917.53;;;6.56;100.00
5500;BME280;2772;42.700;23.304;2023-11-21T03:51:04;94911.66;;;6.59;100.00
5500;BME280;2772;42.700;23.304;2023-11-21T03:53:30;94902.88;;;6.64;100.00
5500;BME280;2772;42.700;23.304;2023-11-21T03:55:57;94902.88;;;6.64;100.00
5500;BME280;2772;42.700;23.304;2023-11-21T03:58:24;94903.44;;;6.61;100.00
5500;BME280;2772;42.700;23.304;2023-11-21T04:00:51;94909.31;;;6.58;100.00
5500;BME280;2772;42.700;23.304;2023-11-21T04:03:18;94910.91;;;6.59;100.00
5500;BME280;2772;42.700;23.304;2023-11-21T04:05:45;94897.72;;;6.54;100.00
5500;BME280;2772;42.700;23.304;2023-11-21T04:08:14;94904.22;;;6.61;100.00
5500;BME280;2772;42.700;23.304;2023-11-21T04:10:40;94898.38;;;6.64;100.00
5500;BME280;2772;42.700;23.304;2023-11-21T04:13:07;94891.28;;;6.60;100.00
5500;BME280;2772;42.700;23.304;2023-11-21T04:15:34;94902.69;;;6.60;100.00
5500;BME280;2772;42.700;23.304;2023-11-21T04:18:01;94900.50;;;6.62;100.00
5500;BME280;2772;42.700;23.304;2023-11-21T04:20:28;94896.06;;;6.58;100.00
5500;BME280;2772;42.700;23.304;2023-11-21T04:22:55;94900.66;;;6.52;100.00
5500;BME280;2772;42.700;23.304;2023-11-21T04:25:23;94902.22;;;6.53;100.00
5500;BME280;2772;42.700;23.304;2023-11-21T04:27:50;94902.16;;;6.39;100.00
5500;BME280;2772;42.700;23.304;2023-11-21T04:30:17;94904.47;;;6.46;100.00
5500;BME280;2772;42.700;23.304;2023-11-21T04:32:43;94909.00;;;6.40;100.00
5500;BME280;2772;42.700;23.304;2023-11-21T04:35:10;94900.22;;;6.45;100.00
5500;BME280;2772;42.700;23.304;2023-11-21T04:37:40;94902.66;;;6.41;100.00
5500;BME280;2772;42.700;23.304;2023-11-21T04:40:08;94909.94;;;6.31;100.00
5500;BME280;2772;42.700;23.304;2023-11-21T04:42:36;94911.84;;;6.25;100.00
5500;BME280;2772;42.700;23.304;2023-11-21T04:45:04;94905.50;;;6.26;100.00
5500;BME280;2772;42.700;23.304;2023-11-21T04:47:34;94904.50;;;6.22;100.00
5500;BME280;2772;42.700;23.304;2023-11-21T04:50:00;94912.16;;;6.24;100.00
5500;BME280;2772;42.700;23.304;2023-11-21T04:52:28;94914.34;;;6.17;100.00
5500;BME280;2772;42.700;23.304;2023-11-21T04:54:58;94917.06;;;6.12;100.00
5500;BME280;2772;42.700;23.304;2023-11-21T04:57:26;94923.72;;;6.04;100.00
5500;BME280;2772;42.700;23.304;2023-11-21T04:59:55;94909.75;;;6.04;100.00
5500;BME280;2772;42.700;23.304;2023-11-21T05:02:22;94909.66;;;6.09;100.00
5500;BME280;2772;42.700;23.304;2023-11-21T05:04:48;94911.22;;;5.91;100.00
5500;BME280;2772;42.700;23.304;2023-11-21T05:07:15;94916.16;;;5.98;100.00
5500;BME280;2772;42.700;23.304;2023-11-21T05:09:42;94917.56;;;5.90;100.00
5500;BME280;2772;42.700;23.304;2023-11-21T05:12:11;94906.25;;;5.85;100.00
5500;BME280;2772;42.700;23.304;2023-11-21T05:14:38;94891.97;;;5.86;100.00
5500;BME280;2772;42.700;23.304;2023-11-21T05:17:05;94893.19;;;5.93;100.00
5500;BME280;2772;42.700;23.304;2023-11-21T05:19:33;94903.22;;;5.96;100.00
5500;BME280;2772;42.700;23.304;2023-11-21T05:22:01;94895.50;;;6.00;100.00
5500;BME280;2772;42.700;23.304;2023-11-21T05:24:27;94894.56;;;5.91;100.00
5500;BME280;2772;42.700;23.304;2023-11-21T05:26:54;94903.38;;;6.05;100.00
5500;BME280;2772;42.700;23.304;2023-11-21T05:29:21;94911.09;;;6.01;100.00
5500;BME280;2772;42.700;23.304;2023-11-21T05:31:48;94913.16;;;6.04;100.00
5500;BME280;2772;42.700;23.304;2023-11-21T05:34:16;94917.06;;;6.12;100.00
5500;BME280;2772;42.700;23.304;2023-11-21T05:36:43;94912.47;;;6.17;100.00
5500;BME280;2772;42.700;23.304;2023-11-21T05:39:11;94916.22;;;6.16;100.00
5500;BME280;2772;42.700;23.304;2023-11-21T05:41:38;94913.97;;;6.05;100.00
5500;BME280;2772;42.700;23.304;2023-11-21T05:44:05;94916.22;;;6.16;100.00
5500;BME280;2772;42.700;23.304;2023-11-21T05:46:31;94910.41;;;6.14;100.00
5500;BME280;2772;42.700;23.304;2023-11-21T05:48:58;94918.72;;;6.03;100.00
5500;BME280;2772;42.700;23.304;2023-11-21T05:51:26;94914.94;;;6.09;100.00
5500;BME280;2772;42.700;23.304;2023-11-21T05:53:53;94913.56;;;6.16;100.00
5500;BME280;2772;42.700;23.304;2023-11-21T05:56:20;94910.06;;;6.21;100.00
5500;BME280;2772;42.700;23.304;2023-11-21T05:58:47;94907.91;;;6.23;100.00
5500;BME280;2772;42.700;23.304;2023-11-21T06:01:13;94906.97;;;6.14;100.00
5500;BME280;2772;42.700;23.304;2023-11-21T06:03:40;94906.13;;;6.18;100.00
5500;BME280;2772;42.700;23.304;2023-11-21T06:06:08;94908.13;;;6.26;100.00
5500;BME280;2772;42.700;23.304;2023-11-21T06:08:36;94911.00;;;6.30;100.00
5500;BME280;2772;42.700;23.304;2023-11-21T06:11:03;94915.78;;;6.28;100.00
5500;BME280;2772;42.700;23.304;2023-11-21T06:13:30;94921.06;;;6.28;100.00
5500;BME280;2772;42.700;23.304;2023-11-21T06:15:56;94928.16;;;6.09;100.00
5500;BME280;2772;42.700;23.304;2023-11-21T06:18:23;94929.75;;;6.10;100.00
5500;BME280;2772;42.700;23.304;2023-11-21T06:20:50;94919.94;;;6.10;100.00
5500;BME280;2772;42.700;23.304;2023-11-21T06:23:18;94924.13;;;6.16;100.00
5500;BME280;2772;42.700;23.304;2023-11-21T06:25:46;94934.34;;;6.23;100.00
5500;BME280;2772;42.700;23.304;2023-11-21T06:28:14;94934.34;;;6.23;100.00
5500;BME280;2772;42.700;23.304;2023-11-21T06:30:43;94932.63;;;6.13;100.00
5500;BME280;2772;42.700;23.304;2023-11-21T06:33:10;94939.88;;;6.03;100.00
5500;BME280;2772;42.700;23.304;2023-11-21T06:35:37;94935.91;;;6.05;100.00
5500;BME280;2772;42.700;23.304;2023-11-21T06:38:04;94941.50;;;5.99;100.00
5500;BME280;2772;42.700;23.304;2023-11-21T06:40:31;94945.44;;;6.01;100.00
5500;BME280;2772;42.700;23.304;2023-11-21T06:43:00;94951.13;;;5.90;100.00
5500;BME280;2772;42.700;23.304;2023-11-21T06:45:27;94954.72;;;5.99;100.00
5500;BME280;2772;42.700;23.304;2023-11-21T06:47:54;94951.47;;;5.83;100.00
5500;BME280;2772;42.700;23.304;2023-11-21T06:50:20;94950.84;;;5.91;100.00
5500;BME280;2772;42.700;23.304;2023-11-21T06:52:47;94951.91;;;5.90;100.00
5500;BME280;2772;42.700;23.304;2023-11-21T06:55:14;94952.69;;;5.91;100.00
5500;BME280;2772;42.700;23.304;2023-11-21T06:57:41;94939.16;;;5.97;100.00
5500;BME280;2772;42.700;23.304;2023-11-21T07:00:10;94953.03;;;6.08;100.00
5500;BME280;2772;42.700;23.304;2023-11-21T07:02:37;94945.84;;;5.90;100.00
5500;BME280;2772;42.700;23.304;2023-11-21T07:05:05;94937.31;;;5.98;100.00
5500;BME280;2772;42.700;23.304;2023-11-21T07:07:32;94952.25;;;5.84;100.00
5500;BME280;2772;42.700;23.304;2023-11-21T07:10:00;94941.56;;;5.94;100.00
5500;BME280;2772;42.700;23.304;2023-11-21T07:12:28;94934.09;;;6.01;100.00
5500;BME280;2772;42.700;23.304;2023-11-21T07:14:56;94933.91;;;5.92;100.00
5500;BME280;2772;42.700;23.304;2023-11-21T07:17:24;94935.72;;;5.97;100.00
5500;BME280;2772;42.700;23.304;2023-11-21T07:19:51;94925.53;;;6.09;100.00
5500;BME280;2772;42.700;23.304;2023-11-21T07:22:18;94926.38;;;6.04;100.00
5500;BME280;2772;42.700;23.304;2023-11-21T07:24:48;94922.81;;;6.56;100.00
5500;BME280;2772;42.700;23.304;2023-11-21T07:27:15;94910.28;;;7.63;100.00
5500;BME280;2772;42.700;23.304;2023-11-21T07:29:42;94917.00;;;8.01;100.00
5500;BME280;2772;42.700;23.304;2023-11-21T07:32:09;94932.72;;;7.97;100.00
5500;BME280;2772;42.700;23.304;2023-11-21T07:34:37;94934.47;;;7.88;100.00
5500;BME280;2772;42.700;23.304;2023-11-21T07:37:04;94936.72;;;7.81;100.00
5500;BME280;2772;42.700;23.304;2023-11-21T07:39:30;94942.03;;;7.81;100.00
5500;BME280;2772;42.700;23.304;2023-11-21T07:41:57;94935.44;;;7.79;100.00
5500;BME280;2772;42.700;23.304;2023-11-21T07:44:24;94939.66;;;7.66;100.00
5500;BME280;2772;42.700;23.304;2023-11-21T07:46:51;94944.59;;;7.54;100.00
5500;BME280;2772;42.700;23.304;2023-11-21T07:49:22;94937.06;;;7.29;100.00
5500;BME280;2772;42.700;23.304;2023-11-21T07:51:51;94934.81;;;7.23;100.00
5500;BME280;2772;42.700;23.304;2023-11-21T07:54:18;94927.97;;;7.35;100.00
5500;BME280;2772;42.700;23.304;2023-11-21T07:56:44;94925.81;;;7.37;100.00
5500;BME280;2772;42.700;23.304;2023-11-21T07:59:13;94928.25;;;7.34;100.00
5500;BME280;2772;42.700;23.304;2023-11-21T08:01:40;94922.59;;;7.40;100.00
5500;BME280;2772;42.700;23.304;2023-11-21T08:04:08;94927.16;;;7.53;100.00
5500;BME280;2772;42.700;23.304;2023-11-21T08:06:35;94916.94;;;7.60;100.00
5500;BME280;2772;42.700;23.304;2023-11-21T08:09:03;94918.44;;;7.66;100.00
5500;BME280;2772;42.700;23.304;2023-11-21T08:11:30;94913.84;;;7.72;100.00
5500;BME280;2772;42.700;23.304;2023-11-21T08:13:58;94925.03;;;7.82;100.00
5500;BME280;2772;42.700;23.304;2023-11-21T08:16:25;94929.34;;;7.78;100.00
5500;BME280;2772;42.700;23.304;2023-11-21T08:18:52;94921.19;;;7.88;100.00
5500;BME280;2772;42.700;23.304;2023-11-21T08:21:20;94930.75;;;7.89;100.00
5500;BME280;2772;42.700;23.304;2023-11-21T08:23:49;94928.84;;;7.90;100.00
5500;BME280;2772;42.700;23.304;2023-11-21T08:26:20;94925.75;;;8.01;100.00
5500;BME280;2772;42.700;23.304;2023-11-21T08:28:47;94920.72;;;8.00;100.00
5500;BME280;2772;42.700;23.304;2023-11-21T08:31:14;94923.97;;;8.10;100.00
5500;BME280;2772;42.700;23.304;2023-11-21T08:33:41;94928.78;;;8.22;100.00
5500;BME280;2772;42.700;23.304;2023-11-21T08:36:08;94918.78;;;8.33;100.00
5500;BME280;2772;42.700;23.304;2023-11-21T08:38:36;94920.38;;;8.34;100.00
5500;BME280;2772;42.700;23.304;2023-11-21T08:41:05;94918.50;;;8.34;100.00
5500;BME280;2772;42.700;23.304;2023-11-21T08:43:35;94918.97;;;8.50;100.00
5500;BME280;2772;42.700;23.304;2023-11-21T08:46:05;94919.25;;;8.62;100.00
5500;BME280;2772;42.700;23.304;2023-11-21T08:48:35;94917.63;;;8.74;100.00
5500;BME280;2772;42.700;23.304;2023-11-21T08:51:02;94909.75;;;8.83;100.00
5500;BME280;2772;42.700;23.304;2023-11-21T08:53:29;94911.19;;;8.89;100.00
5500;BME280;2772;42.700;23.304;2023-11-21T08:55:56;94902.53;;;8.97;100.00
5500;BME280;2772;42.700;23.304;2023-11-21T08:58:23;94905.25;;;9.05;100.00
5500;BME280;2772;42.700;23.304;2023-11-21T09:00:51;94906.81;;;9.06;100.00
5500;BME280;2772;42.700;23.304;2023-11-21T09:03:17;94884.72;;;9.19;100.00
5500;BME280;2772;42.700;23.304;2023-11-21T09:05:44;94893.34;;;9.25;100.00
5500;BME280;2772;42.700;23.304;2023-11-21T09:08:11;94874.81;;;9.33;100.00
5500;BME280;2772;42.700;23.304;2023-11-21T09:10:40;94867.63;;;9.34;100.00
5500;BME280;2772;42.700;23.304;2023-11-21T09:13:08;94860.97;;;9.45;100.00
5500;BME280;2772;42.700;23.304;2023-11-21T09:15:35;94855.53;;;9.50;100.00
5500;BME280;2772;42.700;23.304;2023-11-21T09:18:04;94855.56;;;9.58;100.00
5500;BME280;2772;42.700;23.304;2023-11-21T09:20:31;94859.59;;;9.47;100.00
5500;BME280;2772;42.700;23.304;2023-11-21T09:22:58;94854.13;;;9.52;100.00
5500;BME280;2772;42.700;23.304;2023-11-21T09:25:25;94848.84;;;9.61;100.00
5500;BME280;2772;42.700;23.304;2023-11-21T09:27:54;94847.72;;;9.53;100.00
5500;BME280;2772;42.700;23.304;2023-11-21T09:30:21;94841.13;;;9.51;100.00
5500;BME280;2772;42.700;23.304;2023-11-21T09:32:50;94816.16;;;9.60;100.00
5500;BME280;2772;42.700;23.304;2023-11-21T09:35:18;94810.28;;;9.72;100.00
5500;BME280;2772;42.700;23.304;2023-11-21T09:37:45;94811.22;;;9.76;100.00
5500;BME280;2772;42.700;23.304;2023-11-21T09:40:13;94807.97;;;9.88;100.00
5500;BME280;2772;42.700;23.304;2023-11-21T09:42:48;94804.88;;;9.94;100.00
5500;BME280;2772;42.700;23.304;2023-11-21T09:45:20;94808.91;;;9.92;100.00
5500;BME280;2772;42.700;23.304;2023-11-21T09:47:49;94797.34;;;9.96;100.00
5500;BME280;2772;42.700;23.304;2023-11-21T09:50:17;94786.41;;;10.06;100.00
5500;BME280;2772;42.700;23.304;2023-11-21T09:52:51;94773.78;;;10.20;100.00
5500;BME280;2772;42.700;23.304;2023-11-21T09:55:21;94758.78;;;10.33;100.00
5500;BME280;2772;42.700;23.304;2023-11-21T09:57:49;94759.56;;;10.33;100.00
5500;BME280;2772;42.700;23.304;2023-11-21T10:00:16;94761.13;;;10.51;100.00
5500;BME280;2772;42.700;23.304;2023-11-21T10:02:46;94759.72;;;10.62;100.00
5500;BME280;2772;42.700;23.304;2023-11-21T10:05:15;94769.44;;;10.75;100.00
5500;BME280;2772;42.700;23.304;2023-11-21T10:07:44;94768.63;;;10.83;100.00
5500;BME280;2772;42.700;23.304;2023-11-21T10:10:13;94759.38;;;10.89;100.00
5500;BME280;2772;42.700;23.304;2023-11-21T10:12:43;94756.38;;;10.99;100.00
5500;BME280;2772;42.700;23.304;2023-11-21T10:15:11;94753.22;;;11.14;100.00
5500;BME280;2772;42.700;23.304;2023-11-21T10:17:42;94751.63;;;11.13;100.00
5500;BME280;2772;42.700;23.304;2023-11-21T10:20:11;94749.44;;;11.07;100.00
5500;BME280;2772;42.700;23.304;2023-11-21T10:22:39;94737.16;;;11.32;100.00
5500;BME280;2772;42.700;23.304;2023-11-21T10:25:09;94743.25;;;11.32;100.00
5500;BME280;2772;42.700;23.304;2023-11-21T10:27:36;94737.91;;;11.32;100.00
5500;BME280;2772;42.700;23.304;2023-11-21T10:30:05;94744.19;;;11.36;100.00
5500;BME280;2772;42.700;23.304;2023-11-21T10:32:33;94737.91;;;11.41;100.00
5500;BME280;2772;42.700;23.304;2023-11-21T10:35:00;94732.41;;;11.46;100.00
5500;BME280;2772;42.700;23.304;2023-11-21T10:37:32;94728.44;;;11.52;100.00
5500;BME280;2772;42.700;23.304;2023-11-21T10:40:00;94720.56;;;11.64;100.00
5500;BME280;2772;42.700;23.304;2023-11-21T10:42:28;94720.59;;;11.55;100.00
5500;BME280;2772;42.700;23.304;2023-11-21T10:44:55;94724.16;;;11.68;100.00
5500;BME280;2772;42.700;23.304;2023-11-21T10:47:22;94712.97;;;11.74;100.00
5500;BME280;2772;42.700;23.304;2023-11-21T10:49:49;94715.94;;;11.81;100.00
5500;BME280;2772;42.700;23.304;2023-11-21T10:52:18;94708.66;;;11.90;100.00
5500;BME280;2772;42.700;23.304;2023-11-21T10:54:46;94704.34;;;11.98;100.00
5500;BME280;2772;42.700;23.304;2023-11-21T10:57:17;94696.34;;;11.98;100.00
5500;BME280;2772;42.700;23.304;2023-11-21T10:59:47;94701.31;;;12.08;100.00
5500;BME280;2772;42.700;23.304;2023-11-21T11:02:21;94697.59;;;12.00;100.00
5500;BME280;2772;42.700;23.304;2023-11-21T11:04:52;94703.91;;;11.96;100.00
5500;BME280;2772;42.700;23.304;2023-11-21T11:07:26;94692.69;;;11.82;100.00
5500;BME280;2772;42.700;23.304;2023-11-21T11:09:58;94685.28;;;11.87;100.00
5500;BME280;2772;42.700;23.304;2023-11-21T11:12:25;94690.91;;;11.94;100.00
5500;BME280;2772;42.700;23.304;2023-11-21T11:14:55;94691.84;;;11.90;100.00
5500;BME280;2772;42.700;23.304;2023-11-21T11:17:22;94674.75;;;11.91;100.00
5500;BME280;2772;42.700;23.304;2023-11-21T11:19:49;94677.13;;;11.84;100.00
5500;BME280;2772;42.700;23.304;2023-11-21T11:22:25;94674.09;;;11.94;100.00
5500;BME280;2772;42.700;23.304;2023-11-21T11:25:13;94661.25;;;11.87;100.00
5500;BME280;2772;42.700;23.304;2023-11-21T11:27:48;94659.81;;;11.90;100.00
5500;BME280;2772;42.700;23.304;2023-11-21T11:30:27;94661.97;;;11.96;100.00
5500;BME280;2772;42.700;23.304;2023-11-21T11:33:09;94651.25;;;12.05;100.00
5500;BME280;2772;42.700;23.304;2023-11-21T11:35:47;94654.50;;;12.10;100.00
5500;BME280;2772;42.700;23.304;2023-11-21T11:38:17;94655.09;;;12.16;100.00
5500;BME280;2772;42.700;23.304;2023-11-21T11:40:46;94655.09;;;12.16;100.00
5500;BME280;2772;42.700;23.304;2023-11-21T11:43:25;94662.63;;;12.14;100.00
5500;BME280;2772;42.700;23.304;2023-11-21T11:45:55;94667.44;;;12.20;100.00
5500;BME280;2772;42.700;23.304;2023-11-21T11:48:22;94666.66;;;12.20;100.00
5500;BME280;2772;42.700;23.304;2023-11-21T11:51:05;94676.44;;;12.16;100.00
5500;BME280;2772;42.700;23.304;2023-11-21T11:53:41;94668.09;;;12.17;100.00
5500;BME280;2772;42.700;23.304;2023-11-21T11:56:22;94656.63;;;12.17;100.00
5500;BME280;2772;42.700;23.304;2023-11-21T11:58:51;94649.47;;;12.09;100.00
5500;BME280;2772;42.700;23.304;2023-11-21T12:01:20;94659.13;;;12.01;100.00
5500;BME280;2772;42.700;23.304;2023-11-21T12:04:25;94648.31;;;11.98;100.00
5500;BME280;2772;42.700;23.304;2023-11-21T12:07:02;94662.56;;;12.02;100.00
5500;BME280;2772;42.700;23.304;2023-11-21T12:09:31;94665.09;;;11.78;100.00
5500;BME280;2772;42.700;23.304;2023-11-21T12:12:00;94663.16;;;11.66;100.00
5500;BME280;2772;42.700;23.304;2023-11-21T12:14:27;94660.66;;;11.53;100.00
5500;BME280;2772;42.700;23.304;2023-11-21T12:16:57;94658.78;;;11.53;100.00
5500;BME280;2772;42.700;23.304;2023-11-21T12:19:25;94660.50;;;11.29;100.00
5500;BME280;2772;42.700;23.304;2023-11-21T12:21:52;94661.91;;;11.26;100.00
5500;BME280;2772;42.700;23.304;2023-11-21T12:24:21;94651.00;;;11.10;100.00
5500;BME280;2772;42.700;23.304;2023-11-21T12:26:49;94648.50;;;11.05;100.00
5500;BME280;2772;42.700;23.304;2023-11-21T12:29:15;94656.88;;;10.95;100.00
5500;BME280;2772;42.700;23.304;2023-11-21T12:31:44;94644.19;;;10.92;100.00
5500;BME280;2772;42.700;23.304;2023-11-21T12:34:12;94651.44;;;10.83;100.00
5500;BME280;2772;42.700;23.304;2023-11-21T12:36:39;94654.03;;;11.00;100.00
5500;BME280;2772;42.700;23.304;2023-11-21T12:39:06;94635.72;;;10.90;100.00
5500;BME280;2772;42.700;23.304;2023-11-21T12:41:34;94640.06;;;11.03;100.00
5500;BME280;2772;42.700;23.304;2023-11-21T12:44:01;94640.63;;;11.17;100.00
5500;BME280;2772;42.700;23.304;2023-11-21T12:46:28;94635.47;;;11.12;100.00
5500;BME280;2772;42.700;23.304;2023-11-21T12:48:58;94621.41;;;11.03;100.00
5500;BME280;2772;42.700;23.304;2023-11-21T12:51:27;94623.13;;;10.99;100.00
5500;BME280;2772;42.700;23.304;2023-11-21T12:53:55;94614.25;;;10.95;100.00
5500;BME280;2772;42.700;23.304;2023-11-21T12:56:22;94615.56;;;11.10;100.00
5500;BME280;2772;42.700;23.304;2023-11-21T12:58:50;94599.88;;;11.17;100.00
5500;BME280;2772;42.700;23.304;2023-11-21T13:01:20;94604.28;;;11.13;100.00
5500;BME280;2772;42.700;23.304;2023-11-21T13:03:48;94601.47;;;11.09;100.00
5500;BME280;2772;42.700;23.304;2023-11-21T13:06:17;94601.72;;;11.25;100.00
5500;BME280;2772;42.700;23.304;2023-11-21T13:08:47;94595.13;;;11.22;100.00
5500;BME280;2772;42.700;23.304;2023-11-21T13:11:14;94594.63;;;11.29;100.00
5500;BME280;2772;42.700;23.304;2023-11-21T13:13:42;94603.97;;;11.14;100.00